sensor_id;sensor_type;location;lat;lon;timestamp;pressure;altitude;pressure_sealevel;temperature;humidity
48968;BME280;46511;53.148;8.204;2023-04-25T00:00:13;100710.28;;;8.99;100.00
48968;BME280;46511;53.148;8.204;2023-04-25T00:02:44;100708.59;;;8.63;100.00
48968;BME280;46511;53.148;8.204;2023-04-25T00:05:17;100710.88;;;8.52;100.00
48968;BME280;46511;53.148;8.204;2023-04-25T00:07:49;100715.72;;;8.61;100.00
48968;BME280;46511;53.148;8.204;2023-04-25T00:10:20;100720.78;;;8.48;100.00
48968;BME280;46511;53.148;8.204;2023-04-25T00:12:52;100724.94;;;8.54;100.00
48968;BME280;46511;53.148;8.204;2023-04-25T00:15:23;100723.72;;;8.42;100.00
48968;BME280;46511;53.148;8.204;2023-04-25T00:17:55;100728.63;;;8.50;100.00
48968;BME280;46511;53.148;8.204;2023-04-25T00:20:26;100724.97;;;8.35;100.00
48968;BME280;46511;53.148;8.204;2023-04-25T00:22:58;100728.50;;;8.53;100.00
48968;BME280;46511;53.148;8.204;2023-04-25T00:25:29;100731.78;;;8.58;100.00
48968;BME280;46511;53.148;8.204;2023-04-25T00:28:00;100724.47;;;8.63;100.00
48968;BME280;46511;53.148;8.204;2023-04-25T00:30:32;100727.38;;;8.40;100.00
48968;BME280;46511;53.148;8.204;2023-04-25T00:32:58;100731.44;;;8.47;100.00
48968;BME280;46511;53.148;8.204;2023-04-25T00:35:29;100725.91;;;8.32;100.00
48968;BME280;46511;53.148;8.204;2023-04-25T00:38:01;100732.91;;;8.52;100.00
48968;BME280;46511;53.148;8.204;2023-04-25T00:40:32;100731.88;;;8.38;100.00
48968;BME280;46511;53.148;8.204;2023-04-25T00:43:04;100729.91;;;8.60;100.00
48968;BME280;46511;53.148;8.204;2023-04-25T00:45:35;100732.63;;;8.58;100.00
48968;BME280;46511;53.148;8.204;2023-04-25T00:48:10;100727.09;;;8.27;100.00
48968;BME280;46511;53.148;8.204;2023-04-25T00:50:43;100728.03;;;8.45;100.00
48968;BME280;46511;53.148;8.204;2023-04-25T00:53:24;100735.66;;;8.32;100.00
48968;BME280;46511;53.148;8.204;2023-04-25T00:55:56;100741.09;;;8.48;100.00
48968;BME280;46511;53.148;8.204;2023-04-25T00:58:28;100740.00;;;8.52;100.00
48968;BME280;46511;53.148;8.204;2023-04-25T01:00:59;100731.72;;;8.41;100.00
48968;BME280;46511;53.148;8.204;2023-04-25T01:03:32;100729.31;;;8.36;100.00
48968;BME280;46511;53.148;8.204;2023-04-25T01:06:09;100736.25;;;8.39;100.00
48968;BME280;46511;53.148;8.204;2023-04-25T01:08:41;100740.00;;;8.52;100.00
48968;BME280;46511;53.148;8.204;2023-04-25T01:11:12;100736.66;;;8.48;100.00
48968;BME280;46511;53.148;8.204;2023-04-25T01:13:44;100743.25;;;8.40;100.00
48968;BME280;46511;53.148;8.204;2023-04-25T01:16:15;100743.81;;;8.46;100.00
48968;BME280;46511;53.148;8.204;2023-04-25T01:18:47;100754.66;;;8.59;100.00
48968;BME280;46511;53.148;8.204;2023-04-25T01:21:19;100755.56;;;8.41;100.00
48968;BME280;46511;53.148;8.204;2023-04-25T01:23:50;100761.88;;;8.38;100.00
48968;BME280;46511;53.148;8.204;2023-04-25T01:26:22;100762.97;;;8.32;100.00
48968;BME280;46511;53.148;8.204;2023-04-25T01:28:54;100765.53;;;8.36;100.00
48968;BME280;46511;53.148;8.204;2023-04-25T01:31:26;100761.50;;;8.46;100.00
48968;BME280;46511;53.148;8.204;2023-04-25T01:33:59;100768.56;;;8.26;100.00
48968;BME280;46511;53.148;8.204;2023-04-25T01:36:30;100755.44;;;8.44;100.00
48968;BME280;46511;53.148;8.204;2023-04-25T01:39:02;100768.72;;;8.42;100.00
48968;BME280;46511;53.148;8.204;2023-04-25T01:41:34;100765.94;;;8.26;100.00
48968;BME280;46511;53.148;8.204;2023-04-25T01:44:05;100777.44;;;8.25;100.00
48968;BME280;46511;53.148;8.204;2023-04-25T01:46:37;100768.28;;;8.14;100.00
48968;BME280;46511;53.148;8.204;2023-04-25T01:49:03;100766.00;;;8.06;100.00
48968;BME280;46511;53.148;8.204;2023-04-25T01:51:34;100776.50;;;8.26;100.00
48968;BME280;46511;53.148;8.204;2023-04-25T01:54:06;100775.84;;;8.21;100.00
48968;BME280;46511;53.148;8.204;2023-04-25T01:56:39;100771.34;;;8.05;100.00
48968;BME280;46511;53.148;8.204;2023-04-25T01:59:11;100778.16;;;8.10;100.00
48968;BME280;46511;53.148;8.204;2023-04-25T02:01:42;100781.88;;;8.06;100.00
48968;BME280;46511;53.148;8.204;2023-04-25T02:04:13;100777.88;;;8.16;100.00
48968;BME280;46511;53.148;8.204;2023-04-25T02:06:44;100789.00;;;8.23;100.00
48968;BME280;46511;53.148;8.204;2023-04-25T02:09:16;100784.44;;;7.89;100.00
48968;BME280;46511;53.148;8.204;2023-04-25T02:11:47;100790.25;;;7.77;100.00
48968;BME280;46511;53.148;8.204;2023-04-25T02:14:18;100801.19;;;8.08;100.00
48968;BME280;46511;53.148;8.204;2023-04-25T02:16:50;100791.97;;;7.98;100.00
48968;BME280;46511;53.148;8.204;2023-04-25T02:19:22;100790.53;;;8.10;100.00
48968;BME280;46511;53.148;8.204;2023-04-25T02:21:53;100782.75;;;8.25;100.00
48968;BME280;46511;53.148;8.204;2023-04-25T02:24:24;100783.44;;;8.10;100.00
48968;BME280;46511;53.148;8.204;2023-04-25T02:26:55;100789.16;;;8.01;100.00
48968;BME280;46511;53.148;8.204;2023-04-25T02:29:27;100785.88;;;7.96;100.00
48968;BME280;46511;53.148;8.204;2023-04-25T02:31:58;100797.03;;;8.02;100.00
48968;BME280;46511;53.148;8.204;2023-04-25T02:34:29;100797.34;;;8.15;100.00
48968;BME280;46511;53.148;8.204;2023-04-25T02:37:01;100797.53;;;8.11;100.00
48968;BME280;46511;53.148;8.204;2023-04-25T02:39:32;100795.88;;;8.08;100.00
48968;BME280;46511;53.148;8.204;2023-04-25T02:42:03;100798.47;;;8.10;100.00
48968;BME280;46511;53.148;8.204;2023-04-25T02:44:34;100798.72;;;7.85;100.00
48968;BME280;46511;53.148;8.204;2023-04-25T02:47:06;100801.09;;;8.10;100.00
48968;BME280;46511;53.148;8.204;2023-04-25T02:49:37;100798.19;;;7.97;100.00
48968;BME280;46511;53.148;8.204;2023-04-25T02:52:08;100795.88;;;8.08;100.00
48968;BME280;46511;53.148;8.204;2023-04-25T02:54:40;100792.59;;;8.22;100.00
48968;BME280;46511;53.148;8.204;2023-04-25T02:57:11;100790.59;;;8.08;100.00
48968;BME280;46511;53.148;8.204;2023-04-25T02:59:42;100795.88;;;8.08;100.00
48968;BME280;46511;53.148;8.204;2023-04-25T03:02:14;100790.72;;;8.05;100.00
48968;BME280;46511;53.148;8.204;2023-04-25T03:04:45;100791.97;;;7.98;100.00
48968;BME280;46511;53.148;8.204;2023-04-25T03:07:17;100789.84;;;7.86;100.00
48968;BME280;46511;53.148;8.204;2023-04-25T03:09:48;100784.84;;;7.80;100.00
48968;BME280;46511;53.148;8.204;2023-04-25T03:12:19;100776.00;;;7.81;100.00
48968;BME280;46511;53.148;8.204;2023-04-25T03:14:50;100787.13;;;7.68;100.00
48968;BME280;46511;53.148;8.204;2023-04-25T03:17:21;100783.97;;;7.60;100.00
48968;BME280;46511;53.148;8.204;2023-04-25T03:19:53;100788.72;;;7.52;100.00
48968;BME280;46511;53.148;8.204;2023-04-25T03:22:24;100784.88;;;7.39;100.00
48968;BME280;46511;53.148;8.204;2023-04-25T03:24:56;100791.22;;;7.35;100.00
48968;BME280;46511;53.148;8.204;2023-04-25T03:27:27;100802.00;;;7.51;100.00
48968;BME280;46511;53.148;8.204;2023-04-25T03:29:58;100792.63;;;7.43;100.00
48968;BME280;46511;53.148;8.204;2023-04-25T03:32:29;100800.69;;;7.40;100.00
48968;BME280;46511;53.148;8.204;2023-04-25T03:35:01;100803.06;;;7.47;100.00
48968;BME280;46511;53.148;8.204;2023-04-25T03:37:32;100796.13;;;7.44;100.00
48968;BME280;46511;53.148;8.204;2023-04-25T03:40:03;100797.44;;;7.34;100.00
48968;BME280;46511;53.148;8.204;2023-04-25T03:42:35;100803.28;;;7.22;100.00
48968;BME280;46511;53.148;8.204;2023-04-25T03:45:06;100803.38;;;7.19;100.00
48968;BME280;46511;53.148;8.204;2023-04-25T03:47:38;100804.38;;;7.36;100.00
48968;BME280;46511;53.148;8.204;2023-04-25T03:50:09;100809.59;;;7.38;100.00
48968;BME280;46511;53.148;8.204;2023-04-25T03:52:41;100815.56;;;7.23;100.00
48968;BME280;46511;53.148;8.204;2023-04-25T03:55:12;100815.47;;;7.44;100.00
48968;BME280;46511;53.148;8.204;2023-04-25T03:57:43;100822.47;;;7.45;100.00
48968;BME280;46511;53.148;8.204;2023-04-25T04:00:14;100826.59;;;7.32;100.00
48968;BME280;46511;53.148;8.204;2023-04-25T04:02:46;100830.94;;;7.13;100.00
48968;BME280;46511;53.148;8.204;2023-04-25T04:05:17;100831.72;;;7.35;100.00
48968;BME280;46511;53.148;8.204;2023-04-25T04:07:48;100837.34;;;7.28;100.00
48968;BME280;46511;53.148;8.204;2023-04-25T04:10:20;100844.31;;;7.51;100.00
48968;BME280;46511;53.148;8.204;2023-04-25T04:12:51;100840.13;;;7.45;100.00
48968;BME280;46511;53.148;8.204;2023-04-25T04:15:22;100845.81;;;7.56;100.00
48968;BME280;46511;53.148;8.204;2023-04-25T04:17:54;100852.53;;;7.23;100.00
48968;BME280;46511;53.148;8.204;2023-04-25T04:20:25;100854.56;;;7.58;100.00
48968;BME280;46511;53.148;8.204;2023-04-25T04:22:56;100855.34;;;7.60;100.00
48968;BME280;46511;53.148;8.204;2023-04-25T04:25:28;100847.19;;;7.44;100.00
48968;BME280;46511;53.148;8.204;2023-04-25T04:27:59;100860.81;;;7.56;100.00
48968;BME280;46511;53.148;8.204;2023-04-25T04:30:31;100869.44;;;7.39;100.00
48968;BME280;46511;53.148;8.204;2023-04-25T04:33:04;100865.63;;;7.46;100.00
48968;BME280;46511;53.148;8.204;2023-04-25T04:35:35;100861.47;;;7.40;100.00
48968;BME280;46511;53.148;8.204;2023-04-25T04:38:06;100864.25;;;7.58;100.00
48968;BME280;46511;53.148;8.204;2023-04-25T04:40:38;100864.97;;;7.41;100.00
48968;BME280;46511;53.148;8.204;2023-04-25T04:43:09;100871.72;;;7.68;100.00
48968;BME280;46511;53.148;8.204;2023-04-25T04:45:41;100875.88;;;7.74;100.00
48968;BME280;46511;53.148;8.204;2023-04-25T04:48:12;100874.34;;;7.48;100.00
48968;BME280;46511;53.148;8.204;2023-04-25T04:50:44;100875.94;;;7.52;100.00
48968;BME280;46511;53.148;8.204;2023-04-25T04:53:16;100878.66;;;7.51;100.00
48968;BME280;46511;53.148;8.204;2023-04-25T04:55:48;100888.56;;;7.45;100.00
48968;BME280;46511;53.148;8.204;2023-04-25T04:58:19;100891.56;;;7.58;100.00
48968;BME280;46511;53.148;8.204;2023-04-25T05:00:50;100885.06;;;7.45;100.00
48968;BME280;46511;53.148;8.204;2023-04-25T05:03:21;100892.91;;;7.47;100.00
48968;BME280;46511;53.148;8.204;2023-04-25T05:05:53;100893.00;;;7.65;100.00
48968;BME280;46511;53.148;8.204;2023-04-25T05:08:24;100893.44;;;7.34;100.00
48968;BME280;46511;53.148;8.204;2023-04-25T05:10:55;100896.50;;;7.45;100.00
48968;BME280;46511;53.148;8.204;2023-04-25T05:13:27;100901.28;;;7.36;100.00
48968;BME280;46511;53.148;8.204;2023-04-25T05:15:58;100900.47;;;7.76;100.00
48968;BME280;46511;53.148;8.204;2023-04-25T05:18:29;100902.53;;;7.90;100.00
48968;BME280;46511;53.148;8.204;2023-04-25T05:21:01;100903.47;;;8.28;100.00
48968;BME280;46511;53.148;8.204;2023-04-25T05:23:32;100910.72;;;8.43;100.00
48968;BME280;46511;53.148;8.204;2023-04-25T05:26:03;100905.31;;;8.46;100.00
48968;BME280;46511;53.148;8.204;2023-04-25T05:28:35;100908.38;;;7.78;100.00
48968;BME280;46511;53.148;8.204;2023-04-25T05:31:09;100913.59;;;8.18;100.00
48968;BME280;46511;53.148;8.204;2023-04-25T05:33:41;100915.25;;;8.21;100.00
48968;BME280;46511;53.148;8.204;2023-04-25T05:36:12;100914.25;;;8.44;100.00
48968;BME280;46511;53.148;8.204;2023-04-25T05:38:43;100926.59;;;8.64;100.00
48968;BME280;46511;53.148;8.204;2023-04-25T05:41:14;100925.22;;;10.81;100.00
48968;BME280;46511;53.148;8.204;2023-04-25T05:43:46;100916.16;;;12.07;96.36
48968;BME280;46511;53.148;8.204;2023-04-25T05:46:20;100906.19;;;13.76;79.54
48968;BME280;46511;53.148;8.204;2023-04-25T05:48:51;100910.66;;;14.77;67.08
48968;BME280;46511;53.148;8.204;2023-04-25T05:51:22;100915.00;;;13.51;73.61
48968;BME280;46511;53.148;8.204;2023-04-25T05:53:54;100917.66;;;12.11;84.34
48968;BME280;46511;53.148;8.204;2023-04-25T05:56:25;100923.31;;;11.61;89.70
48968;BME280;46511;53.148;8.204;2023-04-25T05:58:56;100926.41;;;9.92;97.85
48968;BME280;46511;53.148;8.204;2023-04-25T06:01:28;100933.53;;;9.74;100.00
48968;BME280;46511;53.148;8.204;2023-04-25T06:03:59;100936.91;;;9.95;100.00
48968;BME280;46511;53.148;8.204;2023-04-25T06:06:30;100939.06;;;9.70;100.00
48968;BME280;46511;53.148;8.204;2023-04-25T06:09:02;100940.47;;;9.94;100.00
48968;BME280;46511;53.148;8.204;2023-04-25T06:11:33;100941.00;;;10.51;100.00
48968;BME280;46511;53.148;8.204;2023-04-25T06:14:05;100935.31;;;13.66;75.01
48968;BME280;46511;53.148;8.204;2023-04-25T06:16:37;100927.31;;;15.30;63.00
48968;BME280;46511;53.148;8.204;2023-04-25T06:19:08;100928.66;;;16.63;53.45
48968;BME280;46511;53.148;8.204;2023-04-25T06:21:39;100932.94;;;18.37;51.35
48968;BME280;46511;53.148;8.204;2023-04-25T06:24:10;100936.06;;;16.48;51.50
48968;BME280;46511;53.148;8.204;2023-04-25T06:26:42;100941.81;;;17.86;52.27
48968;BME280;46511;53.148;8.204;2023-04-25T06:29:13;100944.41;;;19.89;48.57
48968;BME280;46511;53.148;8.204;2023-04-25T06:31:44;100938.91;;;16.00;48.78
48968;BME280;46511;53.148;8.204;2023-04-25T06:34:15;100938.25;;;16.66;49.53
48968;BME280;46511;53.148;8.204;2023-04-25T06:36:47;100939.00;;;15.88;52.46
48968;BME280;46511;53.148;8.204;2023-04-25T06:39:18;100934.28;;;18.01;48.76
48968;BME280;46511;53.148;8.204;2023-04-25T06:41:50;100934.97;;;19.16;45.89
48968;BME280;46511;53.148;8.204;2023-04-25T06:44:17;100928.94;;;19.52;41.35
48968;BME280;46511;53.148;8.204;2023-04-25T06:46:48;100933.44;;;20.19;42.45
48968;BME280;46511;53.148;8.204;2023-04-25T06:49:19;100932.25;;;20.51;41.69
48968;BME280;46511;53.148;8.204;2023-04-25T06:51:51;100942.72;;;18.38;42.47
48968;BME280;46511;53.148;8.204;2023-04-25T06:54:22;100940.22;;;20.33;40.02
48968;BME280;46511;53.148;8.204;2023-04-25T06:56:53;100934.88;;;22.40;35.82
48968;BME280;46511;53.148;8.204;2023-04-25T06:59:24;100934.38;;;23.80;36.13
48968;BME280;46511;53.148;8.204;2023-04-25T07:01:56;100942.38;;;22.03;35.61
48968;BME280;46511;53.148;8.204;2023-04-25T07:04:27;100935.22;;;23.05;34.52
48968;BME280;46511;53.148;8.204;2023-04-25T07:06:58;100940.28;;;24.32;32.61
48968;BME280;46511;53.148;8.204;2023-04-25T07:09:31;100942.63;;;24.99;32.05
48968;BME280;46511;53.148;8.204;2023-04-25T07:12:04;100949.72;;;21.92;34.20
48968;BME280;46511;53.148;8.204;2023-04-25T07:14:36;100955.56;;;21.07;36.00
48968;BME280;46511;53.148;8.204;2023-04-25T07:17:07;100959.41;;;18.93;39.71
48968;BME280;46511;53.148;8.204;2023-04-25T07:19:39;100954.63;;;16.85;45.97
48968;BME280;46511;53.148;8.204;2023-04-25T07:22:10;100966.00;;;15.13;50.47
48968;BME280;46511;53.148;8.204;2023-04-25T07:24:42;100962.50;;;13.98;54.38
48968;BME280;46511;53.148;8.204;2023-04-25T07:27:13;100970.13;;;14.04;57.11
48968;BME280;46511;53.148;8.204;2023-04-25T07:29:44;100963.72;;;14.07;55.16
48968;BME280;46511;53.148;8.204;2023-04-25T07:32:15;100973.97;;;13.05;58.98
48968;BME280;46511;53.148;8.204;2023-04-25T07:34:47;100974.94;;;12.18;59.43
48968;BME280;46511;53.148;8.204;2023-04-25T07:37:18;100981.50;;;11.83;65.79
48968;BME280;46511;53.148;8.204;2023-04-25T07:39:49;100985.84;;;11.38;71.00
48968;BME280;46511;53.148;8.204;2023-04-25T07:42:21;100992.88;;;10.25;81.72
48968;BME280;46511;53.148;8.204;2023-04-25T07:44:52;100998.44;;;10.87;87.09
48968;BME280;46511;53.148;8.204;2023-04-25T07:47:23;101002.53;;;10.44;88.78
48968;BME280;46511;53.148;8.204;2023-04-25T07:49:55;101011.09;;;10.49;91.05
48968;BME280;46511;53.148;8.204;2023-04-25T07:52:27;101021.69;;;10.33;97.04
48968;BME280;46511;53.148;8.204;2023-04-25T07:54:58;101040.63;;;10.08;100.00
48968;BME280;46511;53.148;8.204;2023-04-25T07:57:29;101030.84;;;9.91;100.00
48968;BME280;46511;53.148;8.204;2023-04-25T08:00:01;101031.41;;;9.98;100.00
48968;BME280;46511;53.148;8.204;2023-04-25T08:02:32;101038.03;;;11.56;96.23
48968;BME280;46511;53.148;8.204;2023-04-25T08:05:03;101036.69;;;11.95;88.78
48968;BME280;46511;53.148;8.204;2023-04-25T08:07:35;101037.81;;;12.79;79.59
48968;BME280;46511;53.148;8.204;2023-04-25T08:10:07;101043.91;;;13.10;74.78
48968;BME280;46511;53.148;8.204;2023-04-25T08:12:39;101044.53;;;14.23;65.11
48968;BME280;46511;53.148;8.204;2023-04-25T08:15:10;101042.69;;;14.50;60.94
48968;BME280;46511;53.148;8.204;2023-04-25T08:17:42;101047.88;;;15.52;55.11
48968;BME280;46511;53.148;8.204;2023-04-25T08:20:14;101044.69;;;17.77;53.13
48968;BME280;46511;53.148;8.204;2023-04-25T08:22:46;101038.19;;;21.82;41.75
48968;BME280;46511;53.148;8.204;2023-04-25T08:25:17;101034.75;;;24.86;33.46
48968;BME280;46511;53.148;8.204;2023-04-25T08:27:49;101035.25;;;23.33;30.70
48968;BME280;46511;53.148;8.204;2023-04-25T08:30:20;101043.94;;;18.39;37.77
48968;BME280;46511;53.148;8.204;2023-04-25T08:32:51;101055.50;;;17.10;42.51
48968;BME280;46511;53.148;8.204;2023-04-25T08:35:23;101057.38;;;15.32;47.07
48968;BME280;46511;53.148;8.204;2023-04-25T08:37:54;101070.34;;;14.10;54.16
48968;BME280;46511;53.148;8.204;2023-04-25T08:40:26;101078.66;;;12.94;64.22
48968;BME280;46511;53.148;8.204;2023-04-25T08:43:00;101104.44;;;10.76;89.75
48968;BME280;46511;53.148;8.204;2023-04-25T08:45:34;101122.06;;;10.08;98.51
48968;BME280;46511;53.148;8.204;2023-04-25T08:48:10;101082.69;;;9.25;100.00
48968;BME280;46511;53.148;8.204;2023-04-25T08:50:49;101096.94;;;10.15;93.20
48968;BME280;46511;53.148;8.204;2023-04-25T08:53:26;101112.72;;;11.20;93.46
48968;BME280;46511;53.148;8.204;2023-04-25T08:55:59;101102.13;;;14.27;79.80
48968;BME280;46511;53.148;8.204;2023-04-25T08:58:32;101099.75;;;16.47;63.29
48968;BME280;46511;53.148;8.204;2023-04-25T09:01:04;101098.28;;;18.75;51.29
48968;BME280;46511;53.148;8.204;2023-04-25T09:03:35;101095.00;;;21.55;45.80
48968;BME280;46511;53.148;8.204;2023-04-25T09:06:07;101099.00;;;22.41;37.70
48968;BME280;46511;53.148;8.204;2023-04-25T09:08:41;101096.59;;;26.40;36.01
48968;BME280;46511;53.148;8.204;2023-04-25T09:11:12;101095.69;;;26.86;33.14
48968;BME280;46511;53.148;8.204;2023-04-25T09:13:45;101096.56;;;24.84;32.47
48968;BME280;46511;53.148;8.204;2023-04-25T09:16:17;101105.44;;;28.20;28.94
48968;BME280;46511;53.148;8.204;2023-04-25T09:18:52;101098.50;;;26.09;29.40
48968;BME280;46511;53.148;8.204;2023-04-25T09:21:23;101102.03;;;26.17;31.14
48968;BME280;46511;53.148;8.204;2023-04-25T09:23:54;101102.31;;;25.13;29.55
48968;BME280;46511;53.148;8.204;2023-04-25T09:26:26;101098.88;;;23.21;31.16
48968;BME280;46511;53.148;8.204;2023-04-25T09:29:04;101106.41;;;21.49;35.43
48968;BME280;46511;53.148;8.204;2023-04-25T09:31:32;101112.16;;;18.06;41.53
48968;BME280;46511;53.148;8.204;2023-04-25T09:33:59;101130.84;;;14.90;48.48
48968;BME280;46511;53.148;8.204;2023-04-25T09:36:34;101169.13;;;12.83;69.90
48968;BME280;46511;53.148;8.204;2023-04-25T09:39:06;101183.19;;;11.78;88.99
48968;BME280;46511;53.148;8.204;2023-04-25T09:41:46;101195.09;;;10.70;97.29
48968;BME280;46511;53.148;8.204;2023-04-25T09:44:22;101174.31;;;9.88;100.00
48968;BME280;46511;53.148;8.204;2023-04-25T09:46:54;101186.69;;;10.62;100.00
48968;BME280;46511;53.148;8.204;2023-04-25T09:49:26;101179.47;;;9.91;100.00
48968;BME280;46511;53.148;8.204;2023-04-25T09:51:59;101178.72;;;11.29;100.00
48968;BME280;46511;53.148;8.204;2023-04-25T09:54:31;101176.97;;;10.95;96.55
48968;BME280;46511;53.148;8.204;2023-04-25T09:57:04;101180.84;;;11.23;100.00
48968;BME280;46511;53.148;8.204;2023-04-25T09:59:43;101180.00;;;12.18;95.19
48968;BME280;46511;53.148;8.204;2023-04-25T10:02:17;101184.63;;;12.76;89.49
48968;BME280;46511;53.148;8.204;2023-04-25T10:04:53;101174.25;;;12.72;81.39
48968;BME280;46511;53.148;8.204;2023-04-25T10:07:26;101180.44;;;14.15;73.83
48968;BME280;46511;53.148;8.204;2023-04-25T10:10:02;101173.63;;;15.54;66.07
48968;BME280;46511;53.148;8.204;2023-04-25T10:12:35;101177.69;;;16.69;55.39
48968;BME280;46511;53.148;8.204;2023-04-25T10:15:07;101171.72;;;17.46;55.19
48968;BME280;46511;53.148;8.204;2023-04-25T10:17:39;101177.19;;;18.43;48.41
48968;BME280;46511;53.148;8.204;2023-04-25T10:20:11;101174.78;;;18.93;44.41
48968;BME280;46511;53.148;8.204;2023-04-25T10:22:43;101169.25;;;21.88;38.46
48968;BME280;46511;53.148;8.204;2023-04-25T10:25:16;101165.00;;;23.88;33.50
48968;BME280;46511;53.148;8.204;2023-04-25T10:27:49;101167.28;;;23.67;32.29
48968;BME280;46511;53.148;8.204;2023-04-25T10:30:22;101161.88;;;23.41;32.42
48968;BME280;46511;53.148;8.204;2023-04-25T10:32:54;101165.81;;;22.94;31.35
48968;BME280;46511;53.148;8.204;2023-04-25T10:35:29;101152.88;;;22.70;30.75
48968;BME280;46511;53.148;8.204;2023-04-25T10:38:10;101161.00;;;21.89;33.68
48968;BME280;46511;53.148;8.204;2023-04-25T10:46:27;101183.41;;;14.51;54.69
48968;BME280;46511;53.148;8.204;2023-04-25T10:49:02;101188.56;;;14.40;59.64
48968;BME280;46511;53.148;8.204;2023-04-25T10:51:34;101183.47;;;15.79;52.43
48968;BME280;46511;53.148;8.204;2023-04-25T10:54:07;101167.72;;;20.72;44.48
48968;BME280;46511;53.148;8.204;2023-04-25T10:56:41;101162.66;;;21.35;38.84
48968;BME280;46511;53.148;8.204;2023-04-25T10:59:16;101161.75;;;24.35;32.23
48968;BME280;46511;53.148;8.204;2023-04-25T11:01:51;101154.09;;;25.83;27.82
48968;BME280;46511;53.148;8.204;2023-04-25T11:04:28;101156.66;;;24.40;28.31
48968;BME280;46511;53.148;8.204;2023-04-25T11:09:36;101157.56;;;23.98;27.94
48968;BME280;46511;53.148;8.204;2023-04-25T11:12:10;101159.53;;;28.88;23.51
48968;BME280;46511;53.148;8.204;2023-04-25T11:14:43;101156.16;;;25.81;25.29
48968;BME280;46511;53.148;8.204;2023-04-25T11:17:14;101153.25;;;28.09;24.72
48968;BME280;46511;53.148;8.204;2023-04-25T11:19:47;101141.59;;;30.18;21.67
48968;BME280;46511;53.148;8.204;2023-04-25T11:22:19;101154.66;;;24.83;25.49
48968;BME280;46511;53.148;8.204;2023-04-25T11:24:52;101172.41;;;23.70;28.50
48968;BME280;46511;53.148;8.204;2023-04-25T11:27:23;101168.50;;;21.31;29.47
48968;BME280;46511;53.148;8.204;2023-04-25T11:29:55;101176.75;;;18.70;32.49
48968;BME280;46511;53.148;8.204;2023-04-25T11:32:26;101183.75;;;14.60;41.32
48968;BME280;46511;53.148;8.204;2023-04-25T11:34:58;101204.69;;;13.56;49.80
48968;BME280;46511;53.148;8.204;2023-04-25T11:37:29;101212.00;;;13.53;54.16
48968;BME280;46511;53.148;8.204;2023-04-25T11:40:00;101215.06;;;13.61;54.85
48968;BME280;46511;53.148;8.204;2023-04-25T11:42:33;101205.28;;;14.83;49.76
48968;BME280;46511;53.148;8.204;2023-04-25T11:45:05;101211.38;;;16.37;45.79
48968;BME280;46511;53.148;8.204;2023-04-25T11:47:37;101204.59;;;21.39;35.84
48968;BME280;46511;53.148;8.204;2023-04-25T11:50:08;101207.06;;;22.88;32.92
48968;BME280;46511;53.148;8.204;2023-04-25T11:52:42;101202.53;;;24.59;29.42
48968;BME280;46511;53.148;8.204;2023-04-25T11:57:48;101173.31;;;25.10;27.48
48968;BME280;46511;53.148;8.204;2023-04-25T12:00:21;101203.03;;;26.85;25.76
48968;BME280;46511;53.148;8.204;2023-04-25T12:02:54;101198.66;;;26.22;28.87
48968;BME280;46511;53.148;8.204;2023-04-25T12:05:27;101193.19;;;26.98;25.84
48968;BME280;46511;53.148;8.204;2023-04-25T12:08:11;101197.34;;;25.62;26.94
48968;BME280;46511;53.148;8.204;2023-04-25T12:10:46;101199.91;;;23.31;27.89
48968;BME280;46511;53.148;8.204;2023-04-25T12:13:19;101196.09;;;22.09;28.09
48968;BME280;46511;53.148;8.204;2023-04-25T12:15:51;101220.31;;;22.01;28.71
48968;BME280;46511;53.148;8.204;2023-04-25T12:18:25;101214.59;;;24.14;26.46
48968;BME280;46511;53.148;8.204;2023-04-25T12:20:58;101222.16;;;20.97;29.69
48968;BME280;46511;53.148;8.204;2023-04-25T12:23:29;101220.03;;;18.24;30.84
48968;BME280;46511;53.148;8.204;2023-04-25T12:26:01;101230.22;;;18.52;32.28
48968;BME280;46511;53.148;8.204;2023-04-25T12:28:33;101233.47;;;17.34;31.95
48968;BME280;46511;53.148;8.204;2023-04-25T12:31:05;101242.16;;;17.03;32.46
48968;BME280;46511;53.148;8.204;2023-04-25T12:33:37;101250.53;;;16.63;32.52
48968;BME280;46511;53.148;8.204;2023-04-25T12:36:10;101232.88;;;18.64;30.10
48968;BME280;46511;53.148;8.204;2023-04-25T12:38:42;101237.25;;;22.03;27.75
48968;BME280;46511;53.148;8.204;2023-04-25T12:41:14;101235.31;;;23.55;26.64
48968;BME280;46511;53.148;8.204;2023-04-25T12:43:45;101235.06;;;23.67;26.60
48968;BME280;46511;53.148;8.204;2023-04-25T12:46:16;101237.56;;;23.34;28.11
48968;BME280;46511;53.148;8.204;2023-04-25T12:48:48;101237.03;;;23.56;25.29
48968;BME280;46511;53.148;8.204;2023-04-25T12:51:19;101235.34;;;23.12;24.83
48968;BME280;46511;53.148;8.204;2023-04-25T12:53:51;101241.63;;;22.13;23.37
48968;BME280;46511;53.148;8.204;2023-04-25T12:56:23;101240.47;;;21.42;26.03
48968;BME280;46511;53.148;8.204;2023-04-25T12:58:54;101252.03;;;20.36;27.74
48968;BME280;46511;53.148;8.204;2023-04-25T13:01:26;101244.28;;;17.10;31.14
48968;BME280;46511;53.148;8.204;2023-04-25T13:03:57;101259.63;;;16.00;33.01
48968;BME280;46511;53.148;8.204;2023-04-25T13:06:28;101264.72;;;15.66;34.75
48968;BME280;46511;53.148;8.204;2023-04-25T13:09:01;101279.38;;;15.61;35.89
48968;BME280;46511;53.148;8.204;2023-04-25T13:11:34;101262.47;;;18.20;32.87
48968;BME280;46511;53.148;8.204;2023-04-25T13:14:06;101259.34;;;20.45;30.85
48968;BME280;46511;53.148;8.204;2023-04-25T13:16:37;101245.22;;;21.67;28.10
48968;BME280;46511;53.148;8.204;2023-04-25T13:19:08;101259.66;;;19.08;31.85
48968;BME280;46511;53.148;8.204;2023-04-25T13:21:42;101251.53;;;19.61;32.01
48968;BME280;46511;53.148;8.204;2023-04-25T13:24:13;101265.38;;;18.83;30.27